createdAt,value
2018-04-11T00:02:24.647Z,29.20
2018-04-11T00:04:52.082Z,26.33
2018-04-11T00:07:20.334Z,27.17
2018-04-11T00:09:47.757Z,24.50
2018-04-11T00:12:15.224Z,26.00
2018-04-11T00:14:43.428Z,27.03
2018-04-11T00:17:10.864Z,34.57
2018-04-11T00:19:38.308Z,37.07
2018-04-11T00:22:05.744Z,41.37
2018-04-11T00:24:33.186Z,42.57
2018-04-11T00:27:01.397Z,45.27
2018-04-11T00:29:28.829Z,45.53
2018-04-11T00:31:56.266Z,53.70
2018-04-11T00:34:23.701Z,50.97
2018-04-11T00:36:51.912Z,52.60
2018-04-11T00:39:19.352Z,57.20
2018-04-11T00:41:46.771Z,54.13
2018-04-11T00:44:14.213Z,54.73
2018-04-11T00:46:41.652Z,52.60
2018-04-11T00:49:09.853Z,50.80
2018-04-11T00:51:37.286Z,50.40
2018-04-11T00:54:04.727Z,52.17
2018-04-11T00:56:32.174Z,52.83
2018-04-11T00:58:59.612Z,51.17
2018-04-11T01:01:27.051Z,52.83
2018-04-11T01:03:55.252Z,54.60
2018-04-11T01:06:22.685Z,51.40
2018-04-11T01:08:50.896Z,51.33
2018-04-11T01:11:18.330Z,54.87
2018-04-11T01:13:45.766Z,54.17
2018-04-11T01:16:13.988Z,56.20
2018-04-11T01:18:41.437Z,48.83
2018-04-11T01:21:08.917Z,58.87
2018-04-11T01:23:36.354Z,53.20
2018-04-11T01:26:04.356Z,53.77
2018-04-11T01:28:31.787Z,55.47
2018-04-11T01:30:59.235Z,52.67
2018-04-11T01:33:26.676Z,55.93
2018-04-11T01:35:54.110Z,58.67
2018-04-11T01:38:21.564Z,53.67
2018-04-11T01:40:49.751Z,56.27
2018-04-11T01:43:17.209Z,56.37
2018-04-11T01:45:44.630Z,59.17
2018-04-11T01:48:12.882Z,58.67
2018-04-11T01:50:40.303Z,55.37
2018-04-11T01:53:07.733Z,58.33
2018-04-11T01:55:35.176Z,56.33
2018-04-11T01:58:03.384Z,53.27
2018-04-11T02:00:30.833Z,56.83
2018-04-11T02:02:58.285Z,60.77
2018-04-11T02:05:25.721Z,55.80
2018-04-11T02:07:53.170Z,57.97
2018-04-11T02:10:21.374Z,59.23
2018-04-11T02:12:48.832Z,58.33
2018-04-11T02:15:16.256Z,57.13
2018-04-11T02:17:44.487Z,59.17
2018-04-11T02:20:11.914Z,66.23
2018-04-11T02:22:39.354Z,62.83
2018-04-11T02:25:06.807Z,59.87
2018-04-11T02:27:34.244Z,58.63
2018-04-11T02:30:02.465Z,61.17
2018-04-11T02:32:29.909Z,55.83
2018-04-11T02:34:57.357Z,61.87
2018-04-11T02:37:24.784Z,60.33
2018-04-11T02:39:52.993Z,57.73
2018-04-11T02:42:20.432Z,57.40
2018-04-11T02:44:47.936Z,56.03
2018-04-11T02:47:16.077Z,58.83
2018-04-11T02:49:43.528Z,59.57
2018-04-11T02:52:10.960Z,56.30
2018-04-11T02:54:39.169Z,57.07
2018-04-11T02:57:06.592Z,56.37
2018-04-11T02:59:34.808Z,60.00
2018-04-11T03:02:02.244Z,59.10
2018-04-11T03:04:29.689Z,56.90
2018-04-11T03:06:57.139Z,57.40
2018-04-11T03:09:25.401Z,56.40
2018-04-11T03:11:52.810Z,60.00
2018-04-11T03:14:20.248Z,55.27
2018-04-11T03:16:47.945Z,55.10
2018-04-11T03:19:15.384Z,60.23
2018-04-11T03:21:42.817Z,55.07
2018-04-11T03:24:10.260Z,54.40
2018-04-11T03:26:37.702Z,54.57
2018-04-11T03:29:05.912Z,55.00
2018-04-11T03:31:33.344Z,56.70
2018-04-11T03:34:00.777Z,56.37
2018-04-11T03:36:28.981Z,60.23
2018-04-11T03:38:56.408Z,53.77
2018-04-11T03:41:24.613Z,59.30
2018-04-11T03:43:52.068Z,56.40
2018-04-11T03:46:19.485Z,58.73
2018-04-11T03:48:47.701Z,60.60
2018-04-11T03:51:15.128Z,55.10
2018-04-11T03:53:43.338Z,58.50
2018-04-11T03:56:10.772Z,54.33
2018-04-11T03:58:38.196Z,61.17
2018-04-11T04:01:06.412Z,55.23
2018-04-11T04:03:33.921Z,54.80
2018-04-11T04:06:01.373Z,54.20
2018-04-11T04:08:28.792Z,55.40
2018-04-11T04:10:56.230Z,52.57
2018-04-11T04:13:35.442Z,49.03
2018-04-11T04:16:15.500Z,54.00
2018-04-11T04:18:55.014Z,48.50
2018-04-11T04:21:23.212Z,44.27
2018-04-11T04:23:50.656Z,47.13
2018-04-11T04:26:18.854Z,48.33
2018-04-11T04:28:46.291Z,47.37
2018-04-11T04:31:15.100Z,47.23
2018-04-11T04:33:42.525Z,47.03
2018-04-11T04:36:10.733Z,46.37
2018-04-11T04:38:38.168Z,46.07
2018-04-11T04:41:05.601Z,47.90
2018-04-11T04:43:33.876Z,47.30
2018-04-11T04:46:01.304Z,47.13
2018-04-11T04:48:29.909Z,50.63
2018-04-11T04:50:57.347Z,43.93
2018-04-11T04:53:24.786Z,48.87
2018-04-11T04:55:52.231Z,48.90
2018-04-11T04:58:19.656Z,42.90
2018-04-11T05:00:47.086Z,45.07
2018-04-11T05:03:15.277Z,48.97
2018-04-11T05:05:42.740Z,45.23
2018-04-11T05:08:10.185Z,46.50
2018-04-11T05:10:39.097Z,49.07
2018-04-11T05:13:06.512Z,48.73
2018-04-11T05:15:34.724Z,47.90
2018-04-11T05:18:02.163Z,44.07
2018-04-11T05:20:30.356Z,44.07
2018-04-11T05:22:57.804Z,40.30
2018-04-11T05:25:25.250Z,44.37
2018-04-11T05:27:52.690Z,44.33
2018-04-11T05:30:20.120Z,46.77
2018-04-11T05:32:47.610Z,43.83
2018-04-11T05:35:15.804Z,44.53
2018-04-11T05:37:43.238Z,43.77
2018-04-11T05:40:11.441Z,42.83
2018-04-11T05:42:38.881Z,43.73
2018-04-11T05:45:06.325Z,40.17
2018-04-11T05:47:34.532Z,42.07
2018-04-11T05:50:01.991Z,40.37
2018-04-11T05:52:29.433Z,37.00
2018-04-11T05:54:56.887Z,37.43
2018-04-11T05:57:24.332Z,40.50
2018-04-11T05:59:51.773Z,39.97
2018-04-11T06:02:19.977Z,35.57
2018-04-11T06:04:47.417Z,38.80
2018-04-11T06:07:14.852Z,35.90
2018-04-11T06:09:43.046Z,38.73
2018-04-11T06:12:10.484Z,39.60
2018-04-11T06:14:38.703Z,38.93
2018-04-11T06:17:06.139Z,38.00
2018-04-11T06:19:33.568Z,42.97
2018-04-11T06:22:01.777Z,36.60
2018-04-11T06:24:29.222Z,42.23
2018-04-11T06:26:56.660Z,33.47
2018-04-11T06:29:24.095Z,36.47
2018-04-11T06:31:51.533Z,34.57
2018-04-11T06:34:19.001Z,34.03
2018-04-11T06:36:46.444Z,36.33
2018-04-11T06:39:13.876Z,34.63
2018-04-11T06:41:41.322Z,37.13
2018-04-11T06:44:08.760Z,37.43
2018-04-11T06:46:36.884Z,37.80
2018-04-11T06:49:04.316Z,39.90
2018-04-11T06:51:31.771Z,34.37
2018-04-11T06:53:59.209Z,34.87
2018-04-11T06:56:26.644Z,35.30
2018-04-11T06:58:54.089Z,31.60
2018-04-11T07:01:22.276Z,33.97
2018-04-11T07:03:49.720Z,35.93
2018-04-11T07:06:17.932Z,37.80
2018-04-11T07:08:45.376Z,35.10
2018-04-11T07:11:12.816Z,34.53
2018-04-11T07:13:40.249Z,33.23
2018-04-11T07:16:08.451Z,42.37
2018-04-11T07:18:35.887Z,33.20
2018-04-11T07:21:04.096Z,35.67
2018-04-11T07:23:31.523Z,33.63
2018-04-11T07:25:58.982Z,31.50
2018-04-11T07:28:27.177Z,30.80
2018-04-11T07:30:54.617Z,30.87
2018-04-11T07:33:22.065Z,34.63
2018-04-11T07:35:50.269Z,31.63
2018-04-11T07:38:17.709Z,35.00
2018-04-11T07:40:45.133Z,35.53
2018-04-11T07:43:13.341Z,32.33
2018-04-11T07:45:40.775Z,31.77
2018-04-11T07:48:08.233Z,32.87
2018-04-11T07:50:35.664Z,31.50
2018-04-11T07:53:03.115Z,31.93
2018-04-11T07:55:30.550Z,32.63
2018-04-11T07:57:57.993Z,32.43
2018-04-11T08:00:25.433Z,33.87
2018-04-11T08:02:52.897Z,31.17
2018-04-11T08:05:20.314Z,31.90
2018-04-11T08:07:48.517Z,29.73
2018-04-11T08:10:15.951Z,31.03
2018-04-11T08:12:43.392Z,29.90
2018-04-11T08:15:11.594Z,28.07
2018-04-11T08:17:39.040Z,27.27
2018-04-11T08:20:06.477Z,32.17
2018-04-11T08:22:34.701Z,31.67
2018-04-11T08:25:02.142Z,27.63
2018-04-11T08:27:29.582Z,31.50
2018-04-11T08:29:57.043Z,30.90
2018-04-11T08:32:24.515Z,32.73
2018-04-11T08:34:51.949Z,31.67
2018-04-11T08:37:19.394Z,29.57
2018-04-11T08:39:47.648Z,34.73
2018-04-11T08:42:15.089Z,30.87
2018-04-11T08:44:42.520Z,27.30
2018-04-11T08:47:09.965Z,28.67
2018-04-11T08:49:37.408Z,30.03
2018-04-11T08:52:04.848Z,29.07
2018-04-11T08:54:33.137Z,28.13
2018-04-11T08:57:00.576Z,27.27
2018-04-11T08:59:28.781Z,29.80
2018-04-11T09:01:56.232Z,28.70
2018-04-11T09:04:23.709Z,28.97
2018-04-11T09:06:51.144Z,27.50
2018-04-11T09:09:18.583Z,26.63
2018-04-11T09:11:46.029Z,28.43
2018-04-11T09:14:14.241Z,27.80
2018-04-11T09:16:41.689Z,26.70
2018-04-11T09:19:09.139Z,25.63
2018-04-11T09:21:36.572Z,26.50
2018-04-11T09:24:04.025Z,27.50
2018-04-11T09:26:32.232Z,27.83
2018-04-11T09:28:59.680Z,25.47
2018-04-11T09:31:27.113Z,24.20
2018-04-11T09:33:54.563Z,28.37
2018-04-11T09:36:22.773Z,26.17
2018-04-11T09:38:50.214Z,31.37
2018-04-11T09:41:17.643Z,26.07
2018-04-11T09:43:45.866Z,29.80
2018-04-11T09:46:13.303Z,29.97
2018-04-11T09:48:40.754Z,25.20
2018-04-11T09:51:08.186Z,29.17
2018-04-11T09:53:37.324Z,28.73
2018-04-11T09:56:04.762Z,26.57
2018-04-11T09:58:32.215Z,26.37
2018-04-11T10:01:00.401Z,28.27
2018-04-11T10:03:27.837Z,28.13
2018-04-11T10:05:55.285Z,31.30
2018-04-11T10:08:22.728Z,26.80
2018-04-11T10:10:50.937Z,28.87
2018-04-11T10:13:18.387Z,28.03
2018-04-11T10:15:45.822Z,30.83
2018-04-11T10:18:14.040Z,32.67
2018-04-11T10:20:41.491Z,26.57
2018-04-11T10:23:08.949Z,28.97
2018-04-11T10:25:36.391Z,27.17
2018-04-11T10:28:03.850Z,29.43
2018-04-11T10:30:31.272Z,29.50
2018-04-11T10:32:59.480Z,26.20
2018-04-11T10:35:26.916Z,27.43
2018-04-11T10:37:54.894Z,28.00
2018-04-11T10:40:23.136Z,27.07
2018-04-11T10:42:51.342Z,27.30
2018-04-11T10:45:18.784Z,28.10
2018-04-11T10:47:46.212Z,28.47
2018-04-11T10:50:14.416Z,30.30
2018-04-11T10:52:41.864Z,26.33
2018-04-11T10:55:09.308Z,27.33
2018-04-11T10:57:37.521Z,26.33
2018-04-11T11:00:04.956Z,26.63
2018-04-11T11:02:32.395Z,27.73
2018-04-11T11:05:00.604Z,29.33
2018-04-11T11:07:29.128Z,28.20
2018-04-11T11:09:56.590Z,27.77
2018-04-11T11:12:24.021Z,28.50
2018-04-11T11:14:51.464Z,26.50
2018-04-11T11:17:18.922Z,26.60
2018-04-11T11:20:01.133Z,28.63
2018-04-11T11:22:28.583Z,28.50
2018-04-11T11:24:56.038Z,28.80
2018-04-11T11:27:23.477Z,27.93
2018-04-11T11:29:50.935Z,24.07
2018-04-11T11:32:18.410Z,22.17
2018-04-11T11:34:45.862Z,22.50
2018-04-11T11:37:13.304Z,21.30
2018-04-11T11:39:40.753Z,22.60
2018-04-11T11:42:08.211Z,26.97
2018-04-11T11:44:35.670Z,30.17
2018-04-11T11:47:03.117Z,29.07
2018-04-11T11:49:31.235Z,28.40
2018-04-11T11:51:58.721Z,31.80
2018-04-11T11:54:26.927Z,30.87
2018-04-11T11:56:54.361Z,34.10
2018-04-11T11:59:21.811Z,29.40
2018-04-11T12:01:50.030Z,33.73
2018-04-11T12:04:17.477Z,35.07
2018-04-11T12:06:44.912Z,35.57
2018-04-11T12:09:12.369Z,35.50
2018-04-11T12:11:39.941Z,31.60
2018-04-11T12:14:07.393Z,32.77
2018-04-11T12:16:34.848Z,33.10
2018-04-11T12:19:02.500Z,32.50
2018-04-11T12:21:29.954Z,38.37
2018-04-11T12:23:57.416Z,34.07
2018-04-11T12:26:25.292Z,35.93
2018-04-11T12:28:53.795Z,34.77
2018-04-11T12:31:21.221Z,34.70
2018-04-11T12:33:48.681Z,37.57
2018-04-11T12:36:16.113Z,35.97
2018-04-11T12:38:43.580Z,36.90
2018-04-11T12:41:11.023Z,36.33
2018-04-11T12:43:38.451Z,35.17
2018-04-11T12:46:07.096Z,33.43
2018-04-11T12:48:35.197Z,34.07
2018-04-11T12:51:02.651Z,34.20
2018-04-11T12:53:30.078Z,31.67
2018-04-11T12:55:57.524Z,32.17
2018-04-11T12:58:24.969Z,34.33
2018-04-11T13:00:52.413Z,33.17
2018-04-11T13:03:19.849Z,33.17
2018-04-11T13:05:48.079Z,32.17
2018-04-11T13:08:16.273Z,31.87
2018-04-11T13:10:43.715Z,33.77
2018-04-11T13:13:11.155Z,31.20
2018-04-11T13:15:38.608Z,34.10
2018-04-11T13:18:06.059Z,32.93
2018-04-11T13:20:33.502Z,32.93
2018-04-11T13:23:00.945Z,30.73
2018-04-11T13:25:28.376Z,32.30
2018-04-11T13:27:56.689Z,30.67
2018-04-11T13:30:24.112Z,36.23
2018-04-11T13:32:52.304Z,34.30
2018-04-11T13:35:19.746Z,35.13
2018-04-11T13:37:47.952Z,34.63
2018-04-11T13:40:15.395Z,35.13
2018-04-11T13:42:42.833Z,35.87
2018-04-11T13:45:11.041Z,34.07
2018-04-11T13:47:38.476Z,34.53
2018-04-11T13:50:05.917Z,33.13
2018-04-11T13:52:34.525Z,35.83
2018-04-11T13:55:01.980Z,37.70
2018-04-11T13:57:29.413Z,40.37
2018-04-11T13:59:57.621Z,36.20
2018-04-11T14:02:25.122Z,36.63
2018-04-11T14:04:52.552Z,36.63
2018-04-11T14:07:20.018Z,36.43
2018-04-11T14:09:47.449Z,39.13
2018-04-11T14:12:14.893Z,36.67
2018-04-11T14:14:42.332Z,38.17
2018-04-11T14:17:09.784Z,39.97
2018-04-11T14:19:37.256Z,40.00
2018-04-11T14:22:04.724Z,39.97
2018-04-11T14:24:32.170Z,42.20
2018-04-11T14:26:59.612Z,39.80
2018-04-11T14:29:27.066Z,41.07
2018-04-11T14:31:54.517Z,43.00
2018-04-11T14:34:21.950Z,42.40
2018-04-11T14:36:50.166Z,39.60
2018-04-11T14:39:17.607Z,41.27
2018-04-11T14:41:45.082Z,38.80
2018-04-11T14:44:12.521Z,39.77
2018-04-11T14:46:39.964Z,45.73
2018-04-11T14:49:07.418Z,39.50
2018-04-11T14:51:35.625Z,40.70
2018-04-11T14:54:03.072Z,37.93
2018-04-11T14:56:30.526Z,45.53
2018-04-11T14:58:57.969Z,40.20
2018-04-11T15:01:25.404Z,41.00
2018-04-11T15:03:53.608Z,44.53
2018-04-11T15:06:21.040Z,40.83
2018-04-11T15:08:50.166Z,44.60
2018-04-11T15:11:17.598Z,45.00
2018-04-11T15:13:45.029Z,44.13
2018-04-11T15:16:12.472Z,42.17
2018-04-11T15:18:39.905Z,42.37
2018-04-11T15:21:08.115Z,45.57
2018-04-11T15:23:35.548Z,42.63
2018-04-11T15:26:03.009Z,47.70
2018-04-11T15:28:30.449Z,42.10
2018-04-11T15:30:57.926Z,43.10
2018-04-11T15:33:26.113Z,44.50
2018-04-11T15:35:54.328Z,44.30
2018-04-11T15:38:22.276Z,45.20
2018-04-11T15:40:49.721Z,45.10
2018-04-11T15:43:18.418Z,47.33
2018-04-11T15:45:45.848Z,50.83
2018-04-11T15:48:14.050Z,45.70
2018-04-11T15:50:41.506Z,51.47
2018-04-11T15:53:09.690Z,51.93
2018-04-11T15:55:37.128Z,50.63
2018-04-11T15:58:04.599Z,51.73
2018-04-11T16:00:32.042Z,55.30
2018-04-11T16:03:00.241Z,54.93
2018-04-11T16:05:27.682Z,54.50
2018-04-11T16:07:55.119Z,50.53
2018-04-11T16:10:23.313Z,49.43
2018-04-11T16:12:50.776Z,51.60
2018-04-11T16:15:18.225Z,54.33
2018-04-11T16:17:45.664Z,55.10
2018-04-11T16:20:13.100Z,51.23
2018-04-11T16:22:41.313Z,53.40
2018-04-11T16:25:08.774Z,54.53
2018-04-11T16:27:36.208Z,48.43
2018-04-11T16:30:03.640Z,48.60
2018-04-11T16:32:31.846Z,46.50
2018-04-11T16:34:59.292Z,48.17
2018-04-11T16:37:27.493Z,46.00
2018-04-11T16:39:54.934Z,44.40
2018-04-11T16:42:22.388Z,44.10
2018-04-11T16:44:49.825Z,49.83
2018-04-11T16:47:18.039Z,50.27
2018-04-11T16:49:45.460Z,49.63
2018-04-11T16:52:12.964Z,50.20
2018-04-11T16:54:40.396Z,54.33
2018-04-11T16:57:08.783Z,51.33
2018-04-11T16:59:36.221Z,48.77
2018-04-11T17:02:03.652Z,53.70
2018-04-11T17:04:31.894Z,51.43
2018-04-11T17:06:59.337Z,53.13
2018-04-11T17:09:26.820Z,58.00
2018-04-11T17:11:54.293Z,56.57
2018-04-11T17:14:22.490Z,59.47
2018-04-11T17:16:49.947Z,57.77
2018-04-11T17:19:17.363Z,59.27
2018-04-11T17:21:57.309Z,59.37
2018-04-11T17:24:37.409Z,59.37
2018-04-11T17:30:19.268Z,59.67
2018-04-11T17:32:46.713Z,61.13
2018-04-11T17:35:14.149Z,61.97
2018-04-11T17:37:41.592Z,62.23
2018-04-11T17:40:09.026Z,60.17
2018-04-11T17:42:36.461Z,62.10
2018-04-11T17:45:04.668Z,61.30
2018-04-11T17:47:32.124Z,62.93
2018-04-11T17:49:59.550Z,62.97
2018-04-11T17:52:28.684Z,65.17
2018-04-11T17:54:56.132Z,66.20
2018-04-11T17:57:23.607Z,63.60
2018-04-11T17:59:51.050Z,64.30
2018-04-11T18:02:18.463Z,62.57
2018-04-11T18:04:46.675Z,64.13
2018-04-11T18:07:14.111Z,65.77
2018-04-11T18:09:42.535Z,66.13
2018-04-11T18:12:09.960Z,66.47
2018-04-11T18:14:37.401Z,68.50
2018-04-11T18:17:04.836Z,65.17
2018-04-11T18:19:33.057Z,67.70
2018-04-11T18:22:01.468Z,69.57
2018-04-11T18:24:28.892Z,66.33
2018-04-11T18:26:56.346Z,70.97
2018-04-11T18:29:23.787Z,70.60
2018-04-11T18:31:51.220Z,68.73
2018-04-11T18:34:18.735Z,67.90
2018-04-11T18:36:46.167Z,68.83
2018-04-11T18:39:13.608Z,66.57
2018-04-11T18:41:41.041Z,67.43
2018-04-11T18:44:09.259Z,65.80
2018-04-11T18:46:36.694Z,61.10
2018-04-11T18:49:04.138Z,64.87
2018-04-11T18:51:31.583Z,70.20
2018-04-11T18:53:59.783Z,64.57
2018-04-11T18:56:27.250Z,73.13
2018-04-11T18:58:54.682Z,66.20
2018-04-11T19:01:22.110Z,69.43
2018-04-11T19:03:50.325Z,71.77
2018-04-11T19:06:17.906Z,70.37
2018-04-11T19:08:45.366Z,68.07
2018-04-11T19:11:12.792Z,70.30
2018-04-11T19:13:40.257Z,71.17
2018-04-11T19:16:07.717Z,75.47
2018-04-11T19:18:35.149Z,73.07
2018-04-11T19:21:02.584Z,77.27
2018-04-11T19:23:30.793Z,74.17
2018-04-11T19:25:58.241Z,78.13
2018-04-11T19:28:25.700Z,79.17
2018-04-11T19:30:53.129Z,75.43
2018-04-11T19:33:21.332Z,81.50
2018-04-11T19:35:48.761Z,82.53
2018-04-11T19:38:16.205Z,81.37
2018-04-11T19:40:44.424Z,79.80
2018-04-11T19:43:11.864Z,77.20
2018-04-11T19:45:39.300Z,84.33
2018-04-11T19:48:06.756Z,83.30
2018-04-11T19:50:34.212Z,80.73
2018-04-11T19:53:01.661Z,83.53
2018-04-11T19:55:29.872Z,80.10
2018-04-11T19:57:57.309Z,83.03
2018-04-11T20:00:24.761Z,83.43
2018-04-11T20:02:52.229Z,82.33
2018-04-11T20:05:19.670Z,84.53
2018-04-11T20:07:47.127Z,83.97
2018-04-11T20:10:15.317Z,82.33
2018-04-11T20:12:42.769Z,82.93
2018-04-11T20:15:10.225Z,84.00
2018-04-11T20:17:37.668Z,80.37
2018-04-11T20:20:05.131Z,82.00
2018-04-11T20:22:32.569Z,86.63
2018-04-11T20:25:00.792Z,80.40
2018-04-11T20:27:28.240Z,84.30
2018-04-11T20:29:56.197Z,78.43
2018-04-11T20:32:23.639Z,80.37
2018-04-11T20:34:51.068Z,83.73
2018-04-11T20:37:19.284Z,78.93
2018-04-11T20:39:46.734Z,78.60
2018-04-11T20:42:14.160Z,72.87
2018-04-11T20:44:41.617Z,75.07
2018-04-11T20:47:09.829Z,70.60
2018-04-11T20:49:37.533Z,68.47
2018-04-11T20:52:04.968Z,72.27
2018-04-11T20:54:32.404Z,69.47
2018-04-11T20:56:59.852Z,73.23
2018-04-11T20:59:27.288Z,75.30
2018-04-11T21:01:54.722Z,70.47
2018-04-11T21:04:23.868Z,74.50
2018-04-11T21:06:51.284Z,71.87
2018-04-11T21:09:18.737Z,72.70
2018-04-11T21:11:47.685Z,73.97
2018-04-11T21:14:15.145Z,74.30
2018-04-11T21:16:42.609Z,69.13
2018-04-11T21:19:10.059Z,70.90
2018-04-11T21:21:37.482Z,68.40
2018-04-11T21:24:04.927Z,71.70
2018-04-11T21:26:32.372Z,71.30
2018-04-11T21:28:59.806Z,67.47
2018-04-11T21:31:28.010Z,67.93
2018-04-11T21:33:55.448Z,67.03
2018-04-11T21:36:22.889Z,68.20
2018-04-11T21:38:51.084Z,68.50
2018-04-11T21:41:18.555Z,71.83
2018-04-11T21:43:45.971Z,69.77
2018-04-11T21:46:14.192Z,67.03
2018-04-11T21:48:41.621Z,70.30
2018-04-11T21:51:09.068Z,72.33
2018-04-11T21:53:37.258Z,69.70
2018-04-11T21:56:05.526Z,75.27
2018-04-11T21:58:32.965Z,70.37
2018-04-11T22:01:01.177Z,71.80
2018-04-11T22:03:28.627Z,71.90
2018-04-11T22:05:56.080Z,72.27
2018-04-11T22:08:23.522Z,72.70
2018-04-11T22:10:50.966Z,71.20
2018-04-11T22:13:19.169Z,78.03
2018-04-11T22:15:46.608Z,73.27
2018-04-11T22:18:14.057Z,77.87
2018-04-11T22:20:41.517Z,76.03
2018-04-11T22:23:08.951Z,79.90
2018-04-11T22:25:36.377Z,80.80
2018-04-11T22:28:03.816Z,81.33
2018-04-11T22:30:31.252Z,81.63
2018-04-11T22:32:58.724Z,78.27
2018-04-11T22:35:26.156Z,80.13
2018-04-11T22:37:53.629Z,79.73
2018-04-11T22:40:21.076Z,82.97
2018-04-11T22:42:48.516Z,81.00
2018-04-11T22:45:15.960Z,85.77
2018-04-11T22:47:44.158Z,92.13
2018-04-11T22:50:11.607Z,85.60
2018-04-11T22:52:39.050Z,91.93
2018-04-11T22:55:07.261Z,87.77
2018-04-11T22:57:34.717Z,82.80
2018-04-11T23:00:02.168Z,85.43
2018-04-11T23:02:29.637Z,82.00
2018-04-11T23:04:57.083Z,79.30
2018-04-11T23:07:24.533Z,79.80
2018-04-11T23:09:51.981Z,77.67
2018-04-11T23:12:19.478Z,75.13
2018-04-11T23:14:46.904Z,78.47
2018-04-11T23:17:14.349Z,75.70
2018-04-11T23:19:41.781Z,74.70
2018-04-11T23:22:09.995Z,72.83
2018-04-11T23:24:37.421Z,73.10
2018-04-11T23:27:04.872Z,76.23
2018-04-11T23:29:32.308Z,74.23
2018-04-11T23:31:59.741Z,70.90
2018-04-11T23:34:27.193Z,71.00
2018-04-11T23:36:54.627Z,74.87
2018-04-11T23:39:22.077Z,73.90
2018-04-11T23:41:49.547Z,73.13
2018-04-11T23:44:16.984Z,70.17
2018-04-11T23:46:44.437Z,68.57
2018-04-11T23:49:12.615Z,71.83
2018-04-11T23:51:40.868Z,69.17
2018-04-11T23:54:08.320Z,74.77
2018-04-11T23:56:35.753Z,71.57
2018-04-11T23:59:03.964Z,67.90
